sensor_id;sensor_type;location;lat;lon;timestamp;P1;durP1;ratioP1;P2;durP2;ratioP2
69837;SDS011;57135;51.992;4.476;2024-03-02T00:01:07;0.55;;;0.50;;
69837;SDS011;57135;51.992;4.476;2024-03-02T00:03:36;0.62;;;0.55;;
69837;SDS011;57135;51.992;4.476;2024-03-02T00:06:02;0.50;;;0.45;;
69837;SDS011;57135;51.992;4.476;2024-03-02T00:08:27;0.64;;;0.57;;
69837;SDS011;57135;51.992;4.476;2024-03-02T00:10:58;0.55;;;0.49;;
69837;SDS011;57135;51.992;4.476;2024-03-02T00:13:25;0.71;;;0.64;;
69837;SDS011;57135;51.992;4.476;2024-03-02T00:15:52;0.78;;;0.71;;
69837;SDS011;57135;51.992;4.476;2024-03-02T00:18:31;0.78;;;0.72;;
69837;SDS011;57135;51.992;4.476;2024-03-02T00:20:59;0.92;;;0.85;;
69837;SDS011;57135;51.992;4.476;2024-03-02T00:23:34;0.83;;;0.77;;
69837;SDS011;57135;51.992;4.476;2024-03-02T00:26:00;0.88;;;0.81;;
69837;SDS011;57135;51.992;4.476;2024-03-02T00:28:27;0.88;;;0.81;;
69837;SDS011;57135;51.992;4.476;2024-03-02T00:30:58;0.72;;;0.66;;
69837;SDS011;57135;51.992;4.476;2024-03-02T00:33:41;0.96;;;0.88;;
69837;SDS011;57135;51.992;4.476;2024-03-02T00:36:09;1.20;;;1.08;;
69837;SDS011;57135;51.992;4.476;2024-03-02T00:38:44;1.25;;;1.12;;
69837;SDS011;57135;51.992;4.476;2024-03-02T00:41:15;1.14;;;1.04;;
69837;SDS011;57135;51.992;4.476;2024-03-02T00:43:57;1.01;;;0.93;;
69837;SDS011;57135;51.992;4.476;2024-03-02T00:46:30;0.83;;;0.76;;
69837;SDS011;57135;51.992;4.476;2024-03-02T00:49:05;0.80;;;0.73;;
69837;SDS011;57135;51.992;4.476;2024-03-02T00:51:41;0.59;;;0.54;;
69837;SDS011;57135;51.992;4.476;2024-03-02T00:54:08;0.61;;;0.56;;
69837;SDS011;57135;51.992;4.476;2024-03-02T00:56:34;0.71;;;0.66;;
69837;SDS011;57135;51.992;4.476;2024-03-02T00:59:00;0.67;;;0.63;;
69837;SDS011;57135;51.992;4.476;2024-03-02T01:01:25;0.79;;;0.73;;
69837;SDS011;57135;51.992;4.476;2024-03-02T01:03:51;0.71;;;0.66;;
69837;SDS011;57135;51.992;4.476;2024-03-02T01:06:17;0.75;;;0.70;;
69837;SDS011;57135;51.992;4.476;2024-03-02T01:08:44;0.64;;;0.60;;
69837;SDS011;57135;51.992;4.476;2024-03-02T01:11:09;0.53;;;0.50;;
69837;SDS011;57135;51.992;4.476;2024-03-02T01:13:35;0.41;;;0.39;;
69837;SDS011;57135;51.992;4.476;2024-03-02T01:16:01;0.48;;;0.45;;
69837;SDS011;57135;51.992;4.476;2024-03-02T01:18:27;0.45;;;0.42;;
69837;SDS011;57135;51.992;4.476;2024-03-02T01:20:53;0.45;;;0.42;;
69837;SDS011;57135;51.992;4.476;2024-03-02T01:23:24;0.45;;;0.42;;
69837;SDS011;57135;51.992;4.476;2024-03-02T01:25:50;0.42;;;0.39;;
69837;SDS011;57135;51.992;4.476;2024-03-02T01:28:16;0.56;;;0.52;;
69837;SDS011;57135;51.992;4.476;2024-03-02T01:30:43;0.59;;;0.55;;
69837;SDS011;57135;51.992;4.476;2024-03-02T01:33:08;0.48;;;0.45;;
69837;SDS011;57135;51.992;4.476;2024-03-02T01:35:34;0.69;;;0.65;;
69837;SDS011;57135;51.992;4.476;2024-03-02T01:38:03;0.77;;;0.74;;
69837;SDS011;57135;51.992;4.476;2024-03-02T01:40:29;1.15;;;1.11;;
69837;SDS011;57135;51.992;4.476;2024-03-02T01:42:54;1.48;;;1.44;;
69837;SDS011;57135;51.992;4.476;2024-03-02T01:45:23;1.72;;;1.69;;
69837;SDS011;57135;51.992;4.476;2024-03-02T01:47:48;1.74;;;1.74;;
69837;SDS011;57135;51.992;4.476;2024-03-02T01:50:24;1.87;;;1.87;;
69837;SDS011;57135;51.992;4.476;2024-03-02T01:52:53;1.96;;;1.96;;
69837;SDS011;57135;51.992;4.476;2024-03-02T01:55:25;2.07;;;2.07;;
69837;SDS011;57135;51.992;4.476;2024-03-02T01:57:52;2.24;;;2.24;;
69837;SDS011;57135;51.992;4.476;2024-03-02T02:00:21;2.31;;;2.31;;
69837;SDS011;57135;51.992;4.476;2024-03-02T02:02:50;2.26;;;2.26;;
69837;SDS011;57135;51.992;4.476;2024-03-02T02:05:15;2.18;;;2.18;;
69837;SDS011;57135;51.992;4.476;2024-03-02T02:07:41;1.95;;;1.95;;
69837;SDS011;57135;51.992;4.476;2024-03-02T02:10:08;1.96;;;1.96;;
69837;SDS011;57135;51.992;4.476;2024-03-02T02:12:34;2.12;;;2.12;;
69837;SDS011;57135;51.992;4.476;2024-03-02T02:15:00;1.92;;;1.92;;
69837;SDS011;57135;51.992;4.476;2024-03-02T02:17:25;1.93;;;1.93;;
69837;SDS011;57135;51.992;4.476;2024-03-02T02:19:51;1.83;;;1.83;;
69837;SDS011;57135;51.992;4.476;2024-03-02T02:22:16;1.82;;;1.82;;
69837;SDS011;57135;51.992;4.476;2024-03-02T02:24:42;2.02;;;2.02;;
69837;SDS011;57135;51.992;4.476;2024-03-02T02:27:10;1.62;;;1.62;;
69837;SDS011;57135;51.992;4.476;2024-03-02T02:29:37;1.64;;;1.64;;
69837;SDS011;57135;51.992;4.476;2024-03-02T02:32:03;1.70;;;1.70;;
69837;SDS011;57135;51.992;4.476;2024-03-02T02:34:29;1.48;;;1.48;;
69837;SDS011;57135;51.992;4.476;2024-03-02T02:36:54;1.37;;;1.37;;
69837;SDS011;57135;51.992;4.476;2024-03-02T02:39:20;1.36;;;1.36;;
69837;SDS011;57135;51.992;4.476;2024-03-02T02:41:47;1.42;;;1.42;;
69837;SDS011;57135;51.992;4.476;2024-03-02T02:44:13;1.47;;;1.47;;
69837;SDS011;57135;51.992;4.476;2024-03-02T02:46:39;1.40;;;1.40;;
69837;SDS011;57135;51.992;4.476;2024-03-02T02:49:05;1.38;;;1.38;;
69837;SDS011;57135;51.992;4.476;2024-03-02T02:51:31;1.42;;;1.42;;
69837;SDS011;57135;51.992;4.476;2024-03-02T02:53:56;1.37;;;1.37;;
69837;SDS011;57135;51.992;4.476;2024-03-02T02:56:22;1.44;;;1.44;;
69837;SDS011;57135;51.992;4.476;2024-03-02T02:58:47;1.50;;;1.50;;
69837;SDS011;57135;51.992;4.476;2024-03-02T03:01:13;1.41;;;1.41;;
69837;SDS011;57135;51.992;4.476;2024-03-02T03:03:42;1.52;;;1.52;;
69837;SDS011;57135;51.992;4.476;2024-03-02T03:06:07;1.42;;;1.42;;
69837;SDS011;57135;51.992;4.476;2024-03-02T03:08:33;1.37;;;1.37;;
69837;SDS011;57135;51.992;4.476;2024-03-02T03:10:58;1.44;;;1.44;;
69837;SDS011;57135;51.992;4.476;2024-03-02T03:13:23;1.30;;;1.30;;
69837;SDS011;57135;51.992;4.476;2024-03-02T03:15:51;1.14;;;1.14;;
69837;SDS011;57135;51.992;4.476;2024-03-02T03:18:17;1.41;;;1.41;;
69837;SDS011;57135;51.992;4.476;2024-03-02T04:07:54;1.45;;;1.45;;
69837;SDS011;57135;51.992;4.476;2024-03-02T04:21:05;1.18;;;1.18;;
69837;SDS011;57135;51.992;4.476;2024-03-02T05:04:06;0.90;;;0.88;;
69837;SDS011;57135;51.992;4.476;2024-03-02T05:06:31;0.99;;;0.97;;
69837;SDS011;57135;51.992;4.476;2024-03-02T05:08:57;0.98;;;0.95;;
69837;SDS011;57135;51.992;4.476;2024-03-02T05:11:22;1.03;;;1.00;;
69837;SDS011;57135;51.992;4.476;2024-03-02T05:14:16;1.04;;;1.00;;
69837;SDS011;57135;51.992;4.476;2024-03-02T05:16:42;0.87;;;0.84;;
69837;SDS011;57135;51.992;4.476;2024-03-02T05:19:07;0.90;;;0.87;;
69837;SDS011;57135;51.992;4.476;2024-03-02T06:42:14;1.11;;;0.98;;
69837;SDS011;57135;51.992;4.476;2024-03-02T06:45:17;0.91;;;0.80;;
69837;SDS011;57135;51.992;4.476;2024-03-02T06:51:30;1.04;;;0.91;;
69837;SDS011;57135;51.992;4.476;2024-03-02T06:53:55;1.04;;;0.92;;
69837;SDS011;57135;51.992;4.476;2024-03-02T06:56:21;1.08;;;0.97;;
69837;SDS011;57135;51.992;4.476;2024-03-02T06:58:46;0.95;;;0.84;;
69837;SDS011;57135;51.992;4.476;2024-03-02T07:01:12;1.24;;;1.08;;
69837;SDS011;57135;51.992;4.476;2024-03-02T07:03:38;1.17;;;1.02;;
69837;SDS011;57135;51.992;4.476;2024-03-02T07:06:04;1.29;;;1.12;;
69837;SDS011;57135;51.992;4.476;2024-03-02T07:08:30;1.11;;;0.97;;
69837;SDS011;57135;51.992;4.476;2024-03-02T07:10:56;0.99;;;0.86;;
69837;SDS011;57135;51.992;4.476;2024-03-02T07:13:25;1.40;;;1.21;;
69837;SDS011;57135;51.992;4.476;2024-03-02T07:15:50;1.38;;;1.20;;
69837;SDS011;57135;51.992;4.476;2024-03-02T07:18:28;1.08;;;0.95;;
69837;SDS011;57135;51.992;4.476;2024-03-02T07:20:55;1.35;;;1.21;;
69837;SDS011;57135;51.992;4.476;2024-03-02T07:23:23;1.26;;;1.12;;
69837;SDS011;57135;51.992;4.476;2024-03-02T07:25:52;1.48;;;1.32;;
69837;SDS011;57135;51.992;4.476;2024-03-02T07:28:20;1.65;;;1.45;;
69837;SDS011;57135;51.992;4.476;2024-03-02T07:30:45;1.02;;;0.89;;
69837;SDS011;57135;51.992;4.476;2024-03-02T07:33:11;1.36;;;1.19;;
69837;SDS011;57135;51.992;4.476;2024-03-02T07:35:36;1.38;;;1.21;;
69837;SDS011;57135;51.992;4.476;2024-03-02T07:38:02;1.20;;;1.05;;
69837;SDS011;57135;51.992;4.476;2024-03-02T07:40:28;1.43;;;1.25;;
69837;SDS011;57135;51.992;4.476;2024-03-02T07:42:54;1.34;;;1.18;;
69837;SDS011;57135;51.992;4.476;2024-03-02T07:45:20;1.07;;;0.95;;
69837;SDS011;57135;51.992;4.476;2024-03-02T07:47:45;1.22;;;1.10;;
69837;SDS011;57135;51.992;4.476;2024-03-02T07:50:11;1.25;;;1.14;;
69837;SDS011;57135;51.992;4.476;2024-03-02T07:52:37;1.23;;;1.12;;
69837;SDS011;57135;51.992;4.476;2024-03-02T07:55:02;1.16;;;1.05;;
69837;SDS011;57135;51.992;4.476;2024-03-02T07:57:28;1.11;;;1.00;;
69837;SDS011;57135;51.992;4.476;2024-03-02T07:59:53;1.47;;;1.33;;
69837;SDS011;57135;51.992;4.476;2024-03-02T08:02:19;1.30;;;1.16;;
69837;SDS011;57135;51.992;4.476;2024-03-02T08:04:45;1.26;;;1.14;;
69837;SDS011;57135;51.992;4.476;2024-03-02T08:07:11;1.33;;;1.20;;
69837;SDS011;57135;51.992;4.476;2024-03-02T08:09:36;1.54;;;1.37;;
69837;SDS011;57135;51.992;4.476;2024-03-02T08:12:02;1.48;;;1.31;;
69837;SDS011;57135;51.992;4.476;2024-03-02T08:14:28;1.46;;;1.28;;
69837;SDS011;57135;51.992;4.476;2024-03-02T08:16:53;1.37;;;1.20;;
69837;SDS011;57135;51.992;4.476;2024-03-02T08:19:18;1.42;;;1.26;;
69837;SDS011;57135;51.992;4.476;2024-03-02T08:21:44;1.24;;;1.08;;
69837;SDS011;57135;51.992;4.476;2024-03-02T08:24:10;1.22;;;1.08;;
69837;SDS011;57135;51.992;4.476;2024-03-02T08:26:35;1.49;;;1.33;;
69837;SDS011;57135;51.992;4.476;2024-03-02T08:29:01;1.36;;;1.19;;
69837;SDS011;57135;51.992;4.476;2024-03-02T08:31:28;1.34;;;1.16;;
69837;SDS011;57135;51.992;4.476;2024-03-02T08:33:54;1.34;;;1.17;;
69837;SDS011;57135;51.992;4.476;2024-03-02T08:36:19;1.56;;;1.36;;
69837;SDS011;57135;51.992;4.476;2024-03-02T08:38:45;1.38;;;1.20;;
69837;SDS011;57135;51.992;4.476;2024-03-02T08:41:11;1.38;;;1.21;;
69837;SDS011;57135;51.992;4.476;2024-03-02T08:43:40;1.35;;;1.20;;
69837;SDS011;57135;51.992;4.476;2024-03-02T08:46:07;1.33;;;1.16;;
69837;SDS011;57135;51.992;4.476;2024-03-02T08:48:32;1.53;;;1.33;;
69837;SDS011;57135;51.992;4.476;2024-03-02T08:50:58;1.63;;;1.42;;
69837;SDS011;57135;51.992;4.476;2024-03-02T08:53:23;1.77;;;1.50;;
69837;SDS011;57135;51.992;4.476;2024-03-02T08:55:49;1.54;;;1.28;;
69837;SDS011;57135;51.992;4.476;2024-03-02T08:58:14;1.45;;;1.19;;
69837;SDS011;57135;51.992;4.476;2024-03-02T09:00:40;1.72;;;1.43;;
69837;SDS011;57135;51.992;4.476;2024-03-02T09:03:06;1.64;;;1.38;;
69837;SDS011;57135;51.992;4.476;2024-03-02T09:05:31;1.66;;;1.39;;
69837;SDS011;57135;51.992;4.476;2024-03-02T09:07:57;1.72;;;1.44;;
69837;SDS011;57135;51.992;4.476;2024-03-02T09:10:22;1.53;;;1.29;;
69837;SDS011;57135;51.992;4.476;2024-03-02T09:12:48;1.57;;;1.36;;
69837;SDS011;57135;51.992;4.476;2024-03-02T09:15:13;1.53;;;1.31;;
69837;SDS011;57135;51.992;4.476;2024-03-02T09:17:39;1.50;;;1.27;;
69837;SDS011;57135;51.992;4.476;2024-03-02T09:20:05;1.66;;;1.38;;
69837;SDS011;57135;51.992;4.476;2024-03-02T09:22:33;1.73;;;1.43;;
69837;SDS011;57135;51.992;4.476;2024-03-02T09:24:58;1.60;;;1.35;;
69837;SDS011;57135;51.992;4.476;2024-03-02T09:27:24;1.65;;;1.42;;
69837;SDS011;57135;51.992;4.476;2024-03-02T09:29:49;1.59;;;1.36;;
69837;SDS011;57135;51.992;4.476;2024-03-02T09:32:15;1.54;;;1.31;;
69837;SDS011;57135;51.992;4.476;2024-03-02T09:34:41;1.74;;;1.46;;
69837;SDS011;57135;51.992;4.476;2024-03-02T09:37:06;1.63;;;1.36;;
69837;SDS011;57135;51.992;4.476;2024-03-02T09:39:33;1.68;;;1.39;;
69837;SDS011;57135;51.992;4.476;2024-03-02T09:42:01;1.92;;;1.57;;
69837;SDS011;57135;51.992;4.476;2024-03-02T09:44:29;1.67;;;1.36;;
69837;SDS011;57135;51.992;4.476;2024-03-02T09:46:55;1.78;;;1.44;;
69837;SDS011;57135;51.992;4.476;2024-03-02T09:49:20;1.54;;;1.24;;
69837;SDS011;57135;51.992;4.476;2024-03-02T09:51:47;1.57;;;1.27;;
69837;SDS011;57135;51.992;4.476;2024-03-02T09:54:13;1.78;;;1.41;;
69837;SDS011;57135;51.992;4.476;2024-03-02T09:56:40;2.01;;;1.58;;
69837;SDS011;57135;51.992;4.476;2024-03-02T09:59:06;1.84;;;1.42;;
69837;SDS011;57135;51.992;4.476;2024-03-02T10:01:31;2.14;;;1.61;;
69837;SDS011;57135;51.992;4.476;2024-03-02T10:04:00;2.29;;;1.70;;
69837;SDS011;57135;51.992;4.476;2024-03-02T10:06:26;2.11;;;1.57;;
69837;SDS011;57135;51.992;4.476;2024-03-02T10:08:53;1.99;;;1.50;;
69837;SDS011;57135;51.992;4.476;2024-03-02T10:11:30;2.09;;;1.58;;
69837;SDS011;57135;51.992;4.476;2024-03-02T10:16:40;2.27;;;1.74;;
69837;SDS011;57135;51.992;4.476;2024-03-02T10:19:17;1.85;;;1.42;;
69837;SDS011;57135;51.992;4.476;2024-03-02T10:21:47;2.07;;;1.53;;
69837;SDS011;57135;51.992;4.476;2024-03-02T10:24:14;2.17;;;1.57;;
69837;SDS011;57135;51.992;4.476;2024-03-02T10:26:43;2.08;;;1.52;;
69837;SDS011;57135;51.992;4.476;2024-03-02T10:29:09;2.11;;;1.54;;
69837;SDS011;57135;51.992;4.476;2024-03-02T10:31:36;2.18;;;1.59;;
69837;SDS011;57135;51.992;4.476;2024-03-02T10:34:02;2.36;;;1.72;;
69837;SDS011;57135;51.992;4.476;2024-03-02T10:36:29;2.44;;;1.81;;
69837;SDS011;57135;51.992;4.476;2024-03-02T10:38:56;2.38;;;1.73;;
69837;SDS011;57135;51.992;4.476;2024-03-02T10:41:24;2.28;;;1.65;;
69837;SDS011;57135;51.992;4.476;2024-03-02T10:43:54;2.31;;;1.67;;
69837;SDS011;57135;51.992;4.476;2024-03-02T10:46:31;2.43;;;1.74;;
69837;SDS011;57135;51.992;4.476;2024-03-02T10:49:02;2.41;;;1.72;;
69837;SDS011;57135;51.992;4.476;2024-03-02T10:51:30;2.50;;;1.79;;
69837;SDS011;57135;51.992;4.476;2024-03-02T10:54:00;2.45;;;1.74;;
69837;SDS011;57135;51.992;4.476;2024-03-02T10:56:30;2.45;;;1.74;;
69837;SDS011;57135;51.992;4.476;2024-03-02T10:59:01;2.33;;;1.65;;
69837;SDS011;57135;51.992;4.476;2024-03-02T11:01:29;2.40;;;1.71;;
69837;SDS011;57135;51.992;4.476;2024-03-02T11:03:56;2.27;;;1.62;;
69837;SDS011;57135;51.992;4.476;2024-03-02T11:06:21;2.29;;;1.62;;
69837;SDS011;57135;51.992;4.476;2024-03-02T11:08:49;2.49;;;1.74;;
69837;SDS011;57135;51.992;4.476;2024-03-02T11:11:22;2.90;;;2.06;;
69837;SDS011;57135;51.992;4.476;2024-03-02T11:13:55;2.47;;;1.72;;
69837;SDS011;57135;51.992;4.476;2024-03-02T11:19:00;2.62;;;1.85;;
69837;SDS011;57135;51.992;4.476;2024-03-02T11:21:28;2.60;;;1.81;;
69837;SDS011;57135;51.992;4.476;2024-03-02T11:23:54;2.25;;;1.56;;
69837;SDS011;57135;51.992;4.476;2024-03-02T11:26:20;2.38;;;1.63;;
69837;SDS011;57135;51.992;4.476;2024-03-02T11:28:47;2.84;;;1.96;;
69837;SDS011;57135;51.992;4.476;2024-03-02T11:31:13;2.46;;;1.71;;
69837;SDS011;57135;51.992;4.476;2024-03-02T11:33:38;2.74;;;1.89;;
69837;SDS011;57135;51.992;4.476;2024-03-02T11:36:05;2.56;;;1.75;;
69837;SDS011;57135;51.992;4.476;2024-03-02T11:38:32;2.07;;;1.43;;
69837;SDS011;57135;51.992;4.476;2024-03-02T11:40:59;2.52;;;1.75;;
69837;SDS011;57135;51.992;4.476;2024-03-02T11:43:27;2.25;;;1.55;;
69837;SDS011;57135;51.992;4.476;2024-03-02T11:46:00;2.59;;;1.79;;
69837;SDS011;57135;51.992;4.476;2024-03-02T11:48:29;2.44;;;1.68;;
69837;SDS011;57135;51.992;4.476;2024-03-02T11:50:54;2.29;;;1.56;;
69837;SDS011;57135;51.992;4.476;2024-03-02T11:53:26;2.33;;;1.59;;
69837;SDS011;57135;51.992;4.476;2024-03-02T11:55:54;2.72;;;1.87;;
69837;SDS011;57135;51.992;4.476;2024-03-02T11:58:20;2.38;;;1.65;;
69837;SDS011;57135;51.992;4.476;2024-03-02T12:00:55;2.20;;;1.52;;
69837;SDS011;57135;51.992;4.476;2024-03-02T12:03:25;2.11;;;1.46;;
69837;SDS011;57135;51.992;4.476;2024-03-02T12:05:54;2.34;;;1.62;;
69837;SDS011;57135;51.992;4.476;2024-03-02T12:08:20;2.30;;;1.58;;
69837;SDS011;57135;51.992;4.476;2024-03-02T12:10:56;1.96;;;1.35;;
69837;SDS011;57135;51.992;4.476;2024-03-02T12:13:23;1.92;;;1.32;;
69837;SDS011;57135;51.992;4.476;2024-03-02T12:15:48;2.37;;;1.67;;
69837;SDS011;57135;51.992;4.476;2024-03-02T12:18:19;2.13;;;1.49;;
69837;SDS011;57135;51.992;4.476;2024-03-02T12:20:44;1.97;;;1.39;;
69837;SDS011;57135;51.992;4.476;2024-03-02T12:23:10;2.14;;;1.50;;
69837;SDS011;57135;51.992;4.476;2024-03-02T12:25:35;2.12;;;1.49;;
69837;SDS011;57135;51.992;4.476;2024-03-02T12:28:01;2.72;;;1.93;;
69837;SDS011;57135;51.992;4.476;2024-03-02T12:30:29;2.52;;;1.84;;
69837;SDS011;57135;51.992;4.476;2024-03-02T12:32:55;2.36;;;1.73;;
69837;SDS011;57135;51.992;4.476;2024-03-02T12:35:21;2.13;;;1.54;;
69837;SDS011;57135;51.992;4.476;2024-03-02T12:37:48;1.99;;;1.45;;
69837;SDS011;57135;51.992;4.476;2024-03-02T12:40:18;1.89;;;1.37;;
69837;SDS011;57135;51.992;4.476;2024-03-02T12:42:45;2.14;;;1.54;;
69837;SDS011;57135;51.992;4.476;2024-03-02T12:45:11;2.01;;;1.45;;
69837;SDS011;57135;51.992;4.476;2024-03-02T12:47:42;2.26;;;1.60;;
69837;SDS011;57135;51.992;4.476;2024-03-02T12:50:08;2.30;;;1.61;;
69837;SDS011;57135;51.992;4.476;2024-03-02T12:52:35;2.39;;;1.66;;
69837;SDS011;57135;51.992;4.476;2024-03-02T12:55:01;2.94;;;2.00;;
69837;SDS011;57135;51.992;4.476;2024-03-02T12:57:29;2.34;;;1.58;;
69837;SDS011;57135;51.992;4.476;2024-03-02T13:00:03;2.43;;;1.66;;
69837;SDS011;57135;51.992;4.476;2024-03-02T13:02:40;2.70;;;1.82;;
69837;SDS011;57135;51.992;4.476;2024-03-02T13:05:09;2.68;;;1.81;;
69837;SDS011;57135;51.992;4.476;2024-03-02T13:07:38;2.68;;;1.80;;
69837;SDS011;57135;51.992;4.476;2024-03-02T13:10:04;2.77;;;1.87;;
69837;SDS011;57135;51.992;4.476;2024-03-02T13:12:30;2.51;;;1.70;;
69837;SDS011;57135;51.992;4.476;2024-03-02T13:14:57;2.47;;;1.68;;
69837;SDS011;57135;51.992;4.476;2024-03-02T13:17:24;2.27;;;1.57;;
69837;SDS011;57135;51.992;4.476;2024-03-02T13:19:56;2.43;;;1.67;;
69837;SDS011;57135;51.992;4.476;2024-03-02T13:22:23;2.48;;;1.73;;
69837;SDS011;57135;51.992;4.476;2024-03-02T13:24:49;1.74;;;1.24;;
69837;SDS011;57135;51.992;4.476;2024-03-02T13:27:15;1.89;;;1.34;;
69837;SDS011;57135;51.992;4.476;2024-03-02T13:29:41;1.81;;;1.30;;
69837;SDS011;57135;51.992;4.476;2024-03-02T13:32:07;2.12;;;1.51;;
69837;SDS011;57135;51.992;4.476;2024-03-02T13:34:34;2.45;;;1.72;;
69837;SDS011;57135;51.992;4.476;2024-03-02T13:37:00;2.21;;;1.55;;
69837;SDS011;57135;51.992;4.476;2024-03-02T13:39:26;1.57;;;1.11;;
69837;SDS011;57135;51.992;4.476;2024-03-02T13:41:52;2.04;;;1.46;;
69837;SDS011;57135;51.992;4.476;2024-03-02T13:44:18;1.68;;;1.22;;
69837;SDS011;57135;51.992;4.476;2024-03-02T13:46:44;2.25;;;1.59;;
69837;SDS011;57135;51.992;4.476;2024-03-02T13:49:18;2.28;;;1.59;;
69837;SDS011;57135;51.992;4.476;2024-03-02T13:51:43;1.46;;;1.03;;
69837;SDS011;57135;51.992;4.476;2024-03-02T13:54:10;1.95;;;1.37;;
69837;SDS011;57135;51.992;4.476;2024-03-02T13:56:35;2.40;;;1.66;;
69837;SDS011;57135;51.992;4.476;2024-03-02T13:59:04;2.19;;;1.50;;
69837;SDS011;57135;51.992;4.476;2024-03-02T14:01:30;2.20;;;1.51;;
69837;SDS011;57135;51.992;4.476;2024-03-02T14:03:57;2.01;;;1.40;;
69837;SDS011;57135;51.992;4.476;2024-03-02T14:06:23;1.85;;;1.30;;
69837;SDS011;57135;51.992;4.476;2024-03-02T14:08:48;2.13;;;1.53;;
69837;SDS011;57135;51.992;4.476;2024-03-02T14:11:17;1.72;;;1.23;;
69837;SDS011;57135;51.992;4.476;2024-03-02T14:13:42;2.31;;;1.64;;
69837;SDS011;57135;51.992;4.476;2024-03-02T14:16:10;1.48;;;1.05;;
69837;SDS011;57135;51.992;4.476;2024-03-02T14:18:35;1.81;;;1.29;;
69837;SDS011;57135;51.992;4.476;2024-03-02T14:21:01;1.91;;;1.39;;
69837;SDS011;57135;51.992;4.476;2024-03-02T14:23:26;1.88;;;1.38;;
69837;SDS011;57135;51.992;4.476;2024-03-02T14:25:53;1.84;;;1.36;;
69837;SDS011;57135;51.992;4.476;2024-03-02T14:28:19;1.78;;;1.30;;
69837;SDS011;57135;51.992;4.476;2024-03-02T14:30:45;1.98;;;1.45;;
69837;SDS011;57135;51.992;4.476;2024-03-02T14:33:10;1.81;;;1.32;;
69837;SDS011;57135;51.992;4.476;2024-03-02T14:35:36;1.45;;;1.06;;
69837;SDS011;57135;51.992;4.476;2024-03-02T14:38:02;1.46;;;1.07;;
69837;SDS011;57135;51.992;4.476;2024-03-02T14:40:27;1.51;;;1.11;;
69837;SDS011;57135;51.992;4.476;2024-03-02T14:42:54;2.01;;;1.49;;
69837;SDS011;57135;51.992;4.476;2024-03-02T14:45:19;2.12;;;1.58;;
69837;SDS011;57135;51.992;4.476;2024-03-02T14:47:45;1.76;;;1.30;;
69837;SDS011;57135;51.992;4.476;2024-03-02T14:50:11;4.22;;;3.26;;
69837;SDS011;57135;51.992;4.476;2024-03-02T14:52:37;2.45;;;2.01;;
69837;SDS011;57135;51.992;4.476;2024-03-02T14:55:02;1.54;;;1.29;;
69837;SDS011;57135;51.992;4.476;2024-03-02T14:57:29;1.33;;;1.10;;
69837;SDS011;57135;51.992;4.476;2024-03-02T14:59:54;1.12;;;0.91;;
69837;SDS011;57135;51.992;4.476;2024-03-02T15:02:20;1.41;;;1.10;;
69837;SDS011;57135;51.992;4.476;2024-03-02T15:04:45;1.96;;;1.49;;
69837;SDS011;57135;51.992;4.476;2024-03-02T15:07:13;1.84;;;1.40;;
69837;SDS011;57135;51.992;4.476;2024-03-02T15:09:39;1.71;;;1.29;;
69837;SDS011;57135;51.992;4.476;2024-03-02T15:12:04;1.80;;;1.36;;
69837;SDS011;57135;51.992;4.476;2024-03-02T15:14:31;1.76;;;1.36;;
69837;SDS011;57135;51.992;4.476;2024-03-02T15:16:57;1.55;;;1.21;;
69837;SDS011;57135;51.992;4.476;2024-03-02T15:19:23;1.74;;;1.33;;
69837;SDS011;57135;51.992;4.476;2024-03-02T15:21:48;1.82;;;1.39;;
69837;SDS011;57135;51.992;4.476;2024-03-02T15:24:14;1.52;;;1.15;;
69837;SDS011;57135;51.992;4.476;2024-03-02T15:26:39;1.86;;;1.40;;
69837;SDS011;57135;51.992;4.476;2024-03-02T15:29:05;2.09;;;1.56;;
69837;SDS011;57135;51.992;4.476;2024-03-02T15:31:30;1.75;;;1.33;;
69837;SDS011;57135;51.992;4.476;2024-03-02T15:33:58;1.95;;;1.49;;
69837;SDS011;57135;51.992;4.476;2024-03-02T15:36:24;1.46;;;1.14;;
69837;SDS011;57135;51.992;4.476;2024-03-02T15:38:49;1.63;;;1.28;;
69837;SDS011;57135;51.992;4.476;2024-03-02T15:41:15;1.72;;;1.36;;
69837;SDS011;57135;51.992;4.476;2024-03-02T15:43:40;1.60;;;1.25;;
69837;SDS011;57135;51.992;4.476;2024-03-02T15:46:08;1.59;;;1.24;;
69837;SDS011;57135;51.992;4.476;2024-03-02T15:48:34;1.85;;;1.46;;
69837;SDS011;57135;51.992;4.476;2024-03-02T15:50:59;1.67;;;1.30;;
69837;SDS011;57135;51.992;4.476;2024-03-02T15:53:25;1.72;;;1.35;;
69837;SDS011;57135;51.992;4.476;2024-03-02T15:55:50;1.59;;;1.24;;
69837;SDS011;57135;51.992;4.476;2024-03-02T15:58:16;1.80;;;1.40;;
69837;SDS011;57135;51.992;4.476;2024-03-02T16:00:42;2.58;;;1.97;;
69837;SDS011;57135;51.992;4.476;2024-03-02T16:03:07;3.01;;;2.36;;
69837;SDS011;57135;51.992;4.476;2024-03-02T16:05:33;2.15;;;1.79;;
69837;SDS011;57135;51.992;4.476;2024-03-02T16:07:58;1.71;;;1.46;;
69837;SDS011;57135;51.992;4.476;2024-03-02T16:10:24;2.07;;;1.79;;
69837;SDS011;57135;51.992;4.476;2024-03-02T16:12:50;2.18;;;1.88;;
69837;SDS011;57135;51.992;4.476;2024-03-02T16:15:17;1.64;;;1.42;;
69837;SDS011;57135;51.992;4.476;2024-03-02T16:17:42;1.83;;;1.63;;
69837;SDS011;57135;51.992;4.476;2024-03-02T16:20:07;1.74;;;1.58;;
69837;SDS011;57135;51.992;4.476;2024-03-02T16:22:33;4.94;;;4.71;;
69837;SDS011;57135;51.992;4.476;2024-03-02T16:24:58;5.25;;;5.22;;
69837;SDS011;57135;51.992;4.476;2024-03-02T16:27:24;5.00;;;4.96;;
69837;SDS011;57135;51.992;4.476;2024-03-02T16:29:50;3.56;;;3.53;;
69837;SDS011;57135;51.992;4.476;2024-03-02T16:32:16;6.33;;;6.21;;
69837;SDS011;57135;51.992;4.476;2024-03-02T16:34:42;6.73;;;6.57;;
69837;SDS011;57135;51.992;4.476;2024-03-02T16:37:07;5.75;;;5.49;;
69837;SDS011;57135;51.992;4.476;2024-03-02T16:39:33;4.83;;;4.71;;
69837;SDS011;57135;51.992;4.476;2024-03-02T16:41:58;5.31;;;5.15;;
69837;SDS011;57135;51.992;4.476;2024-03-02T16:44:35;6.65;;;6.57;;
69837;SDS011;57135;51.992;4.476;2024-03-02T16:47:03;4.60;;;4.57;;
69837;SDS011;57135;51.992;4.476;2024-03-02T16:49:30;2.77;;;2.75;;
69837;SDS011;57135;51.992;4.476;2024-03-02T16:51:55;3.15;;;3.10;;
69837;SDS011;57135;51.992;4.476;2024-03-02T16:54:21;2.28;;;2.23;;
69837;SDS011;57135;51.992;4.476;2024-03-02T16:56:47;1.91;;;1.82;;
69837;SDS011;57135;51.992;4.476;2024-03-02T16:59:12;1.61;;;1.50;;
69837;SDS011;57135;51.992;4.476;2024-03-02T17:01:38;1.57;;;1.42;;
69837;SDS011;57135;51.992;4.476;2024-03-02T17:04:03;1.71;;;1.54;;
69837;SDS011;57135;51.992;4.476;2024-03-02T17:06:30;1.69;;;1.54;;
69837;SDS011;57135;51.992;4.476;2024-03-02T17:08:56;1.73;;;1.57;;
69837;SDS011;57135;51.992;4.476;2024-03-02T17:11:24;2.11;;;1.91;;
69837;SDS011;57135;51.992;4.476;2024-03-02T17:13:50;2.01;;;1.85;;
69837;SDS011;57135;51.992;4.476;2024-03-02T17:16:17;1.97;;;1.84;;
69837;SDS011;57135;51.992;4.476;2024-03-02T17:18:43;1.94;;;1.80;;
69837;SDS011;57135;51.992;4.476;2024-03-02T17:21:10;1.80;;;1.67;;
69837;SDS011;57135;51.992;4.476;2024-03-02T17:23:35;1.99;;;1.86;;
69837;SDS011;57135;51.992;4.476;2024-03-02T17:26:01;2.37;;;2.17;;
69837;SDS011;57135;51.992;4.476;2024-03-02T17:28:27;2.45;;;2.25;;
69837;SDS011;57135;51.992;4.476;2024-03-02T17:30:54;2.62;;;2.37;;
69837;SDS011;57135;51.992;4.476;2024-03-02T17:33:20;2.47;;;2.23;;
69837;SDS011;57135;51.992;4.476;2024-03-02T17:35:45;2.45;;;2.22;;
69837;SDS011;57135;51.992;4.476;2024-03-02T17:38:18;2.72;;;2.53;;
69837;SDS011;57135;51.992;4.476;2024-03-02T17:40:44;2.80;;;2.71;;
69837;SDS011;57135;51.992;4.476;2024-03-02T17:43:09;2.00;;;1.96;;
69837;SDS011;57135;51.992;4.476;2024-03-02T17:45:36;2.11;;;2.06;;
69837;SDS011;57135;51.992;4.476;2024-03-02T17:48:02;2.42;;;2.35;;
69837;SDS011;57135;51.992;4.476;2024-03-02T17:50:28;2.47;;;2.38;;
69837;SDS011;57135;51.992;4.476;2024-03-02T17:52:54;2.59;;;2.46;;
69837;SDS011;57135;51.992;4.476;2024-03-02T17:55:20;2.78;;;2.70;;